Pagrindinis puslapis
METAR-TAF:

METAR-TAF

Oro uostai :

Ubonratčathanis, Tailandas

platuma: 15-15N, ilguma: 104-52E, Aukštis: 123 m

Dabartinis oras

Ataskaita buvo paskelbta 55 minutes, ne 20:00 UTC
Vėjas 4 kt iš Pietų/Pietvakarių, svyruoja nuo Pietų/Pietryčių ir Pietvakarių
Temperatūra 25°C
Drėgmė 89%
Slėgis 1009 hPa
Matomumas 10 km arba daugiau
Mažai debesys ne aukštis 3000 ft

METAR: VTUU 172000Z 20004KT 160V220 9999 FEW030 25/23 Q1009 NOSIG

Laikas: 03:55 (20:55 UTC)

Prognozė

Ataskaita buvo paskelbta 3 valandos ir 55 minutes, ne 17:00 UTC
Prognozė galioja nuo 17 metu 18 UTC su 18 metu 18 UTC
Vėjas 7 kt iš Pietų
Matomumas 10 km arba daugiau
Išsisklaidę debesys ne aukštis 3000 ft
Laikinai
nuo 18 metu 07 UTC su 18 metu 10 UTC
Vėjas 15 kt nuo kintamojo kryptimis su gūsio iki 25 kt
Matomumas: 5000 m
Mažai debesys ne aukštis 1800 ft, Liūtiniai kamuoliniai debesys.
Išsisklaidę debesys ne aukštis 2500 ft
Su prošvaistėmis ne aukštis 10000 ft
perkūnija, lietus

TAF: VTUU 171700Z 1718/1818 19007KT 9999 SCT030 TEMPO 1807/1810 VRB15G25KT 5000 TSRA FEW018CB SCT025 BKN100

Orai ataskaitas ir orų prognozės (METAR, TAF).

turimą stotys yra geltonos ir raudonos taškus žemėlapyje.

Perkelti pele per norėdami pamatyti stoties vardą.

Tada spustelėkite, norėdami matyti oro stebėjimo ir prognozės.

Norėdami pakeisti žemėlapį: spustelėkite ant žalios mygtukų su juodo kryžiaus žemyn,; žalią mygtuką su brūkšneliu, jei norite nutolinti; arba žalių rodyklių gretimoms žemėlapius.


METAR-TAF: